Terminal Aerodrome Forecast
Issued by NWS

Home | Current Version | Previous Version | Text Only | Print | Product List | Glossary On
Versions: 1 2 3 4 5 6 7 8 9 10 11 12 13 14 15 16 17 18 19 20 21 22 23 24 25 26
000
FTUS41 KALY 261734
TAFPSF
TAF
KPSF 261734Z 2618/2718 04006KT P6SM BKN015 OVC030
     FM262300 07005KT P6SM SCT015 OVC025
     FM270700 00000KT P6SM BKN006 OVC015
      TEMPO 2709/2713 3SM BR
     FM271300 VRB03KT P6SM FEW006 BKN015 OVC030
     FM271500 15005KT P6SM SCT015 OVC030=

USA.gov is the U.S. government's official web portal to all federal, state and local government web resources and services.